Time;durP1;ratioP1;P1;durP2;ratioP2;P2;SDS_P1;SDS_P2;PMS_P1;PMS_P2;Temp;Humidity;BMP_temperature;BMP_pressure;BME280_temperature;BME280_humidity;BME280_pressure;Samples;Min_cycle;Max_cycle;Signal;HPM_P1;HPM_P2
2023/07/08 00:00:47;;;;;;;9.30;7.00;;;23.30;45.30;;;;;;5049637;28;20440;-69
2023/07/08 00:03:13;;;;;;;8.33;6.43;;;23.30;45.60;;;;;;5049663;28;20505;-68
2023/07/08 00:05:40;;;;;;;12.73;7.73;;;23.30;45.60;;;;;;5049456;28;20422;-68
2023/07/08 00:08:08;;;;;;;9.77;6.33;;;23.20;45.50;;;;;;5049452;28;20434;-70
2023/07/08 00:10:34;;;;;;;10.53;7.10;;;23.20;45.90;;;;;;5049268;28;20447;-69
2023/07/08 00:12:59;;;;;;;10.37;6.80;;;23.20;46.40;;;;;;5048020;28;20478;-69
2023/07/08 00:15:28;;;;;;;10.10;7.70;;;23.20;46.20;;;;;;5048189;28;20574;-70
2023/07/08 00:17:53;;;;;;;10.57;6.20;;;23.20;46.60;;;;;;5049875;28;20766;-70
2023/07/08 00:20:43;;;;;;;8.93;6.80;;;23.10;46.80;;;;;;5049645;28;20439;-70
2023/07/08 00:23:12;;;;;;;10.23;7.00;;;23.20;46.70;;;;;;5049912;28;20182;-70
2023/07/08 00:25:38;;;;;;;9.77;7.03;;;23.20;47.80;;;;;;5050028;28;20427;-69
2023/07/08 00:28:16;;;;;;;12.73;7.10;;;23.20;47.50;;;;;;5048236;28;20536;-69
2023/07/08 00:30:41;;;;;;;13.47;7.20;;;23.20;48.00;;;;;;5049799;28;20436;-67
2023/07/08 00:33:07;;;;;;;9.33;7.10;;;23.10;48.00;;;;;;5049793;28;20471;-69
2023/07/08 00:35:35;;;;;;;12.67;7.03;;;23.10;48.30;;;;;;5049762;28;20658;-68
2023/07/08 00:38:02;;;;;;;10.63;7.50;;;23.10;48.40;;;;;;5049831;28;20663;-68
2023/07/08 00:40:32;;;;;;;10.90;7.10;;;23.10;48.30;;;;;;5049502;28;20430;-69
2023/07/08 00:43:05;;;;;;;8.57;6.43;;;23.00;48.30;;;;;;5048108;28;20517;-69
2023/07/08 00:45:45;;;;;;;9.53;6.80;;;23.00;48.40;;;;;;5049348;28;20515;-69
2023/07/08 00:48:24;;;;;;;8.27;6.60;;;22.90;48.00;;;;;;5049151;28;20422;-68
2023/07/08 00:50:51;;;;;;;11.03;7.50;;;22.90;48.40;;;;;;5049052;28;20444;-69
2023/07/08 00:53:21;;;;;;;10.90;7.30;;;22.80;48.50;;;;;;5048975;28;20831;-69
2023/07/08 00:55:48;;;;;;;10.57;7.30;;;22.80;48.50;;;;;;5049241;28;20806;-68
2023/07/08 00:58:16;;;;;;;11.10;7.57;;;22.70;49.10;;;;;;5049280;28;20412;-69
2023/07/08 01:00:42;;;;;;;10.47;7.03;;;22.70;49.20;;;;;;5047823;28;20504;-68
2023/07/08 01:03:08;;;;;;;10.00;6.53;;;22.70;49.30;;;;;;5048431;28;20734;-68
2023/07/08 01:05:34;;;;;;;11.53;7.20;;;22.70;49.00;;;;;;5049347;28;20666;-70
2023/07/08 01:08:03;;;;;;;11.90;8.33;;;22.70;49.30;;;;;;5049406;28;20182;-69
2023/07/08 01:10:36;;;;;;;11.97;7.23;;;22.60;48.80;;;;;;5049174;28;20430;-69
2023/07/08 01:13:07;;;;;;;12.10;7.30;;;22.60;49.00;;;;;;5049160;28;20460;-69
2023/07/08 01:15:38;;;;;;;8.43;6.80;;;22.60;48.40;;;;;;5049209;28;20404;-69
2023/07/08 01:18:04;;;;;;;8.07;6.80;;;22.50;48.30;;;;;;5048049;28;20420;-69
2023/07/08 01:20:29;;;;;;;10.47;7.10;;;22.50;48.20;;;;;;5049282;28;20731;-68
2023/07/08 01:22:55;;;;;;;9.13;6.63;;;22.60;48.00;;;;;;5049283;28;20419;-68
2023/07/08 01:25:21;;;;;;;10.77;7.27;;;22.60;48.00;;;;;;5047891;28;20193;-68
2023/07/08 01:27:51;;;;;;;10.63;6.97;;;22.50;47.10;;;;;;5048569;28;20180;-68
2023/07/08 01:30:17;;;;;;;9.30;6.43;;;22.50;48.00;;;;;;5048366;28;20444;-68
2023/07/08 01:32:48;;;;;;;10.73;7.07;;;22.50;47.70;;;;;;5048377;28;20994;-68
2023/07/08 01:35:14;;;;;;;12.93;7.67;;;22.50;47.20;;;;;;5048453;28;20206;-68
2023/07/08 01:37:42;;;;;;;10.70;7.60;;;22.50;47.30;;;;;;5048427;28;20453;-68
2023/07/08 01:40:31;;;;;;;13.60;7.50;;;22.50;47.80;;;;;;5047284;28;20178;-68
2023/07/08 01:42:58;;;;;;;9.40;7.10;;;22.50;47.30;;;;;;5048767;28;20863;-68
2023/07/08 01:45:26;;;;;;;13.47;7.47;;;22.50;49.00;;;;;;5048836;28;20514;-68
2023/07/08 01:47:59;;;;;;;10.93;7.73;;;22.50;48.20;;;;;;5048751;28;20467;-68
2023/07/08 01:50:27;;;;;;;10.70;6.77;;;22.40;48.20;;;;;;5048883;28;20754;-68
2023/07/08 01:52:54;;;;;;;10.77;7.57;;;22.40;47.70;;;;;;5048787;28;20457;-70
2023/07/08 01:55:25;;;;;;;11.43;7.47;;;22.40;47.70;;;;;;5048882;28;20415;-69
2023/07/08 01:57:52;;;;;;;10.30;7.50;;;22.40;48.10;;;;;;5048976;28;20446;-68
2023/07/08 02:00:19;;;;;;;11.93;7.23;;;22.40;48.40;;;;;;5048831;28;20415;-68
2023/07/08 02:02:45;;;;;;;11.27;7.67;;;22.40;49.60;;;;;;5048900;28;20440;-68
2023/07/08 02:05:10;;;;;;;9.83;7.40;;;22.50;48.70;;;;;;5047330;28;20847;-68
2023/07/08 02:07:36;;;;;;;10.67;7.60;;;22.40;49.20;;;;;;5048672;28;20684;-68
2023/07/08 02:10:02;;;;;;;11.93;8.00;;;22.50;49.00;;;;;;5030952;28;20236;-68
2023/07/08 02:12:27;;;;;;;9.97;7.03;;;22.40;49.10;;;;;;5048408;28;20269;-68
2023/07/08 02:14:53;;;;;;;11.83;7.60;;;22.40;49.00;;;;;;5048263;28;20194;-68
2023/07/08 02:17:18;;;;;;;9.00;6.70;;;22.40;50.00;;;;;;5051751;28;20699;-68
2023/07/08 02:19:44;;;;;;;17.57;8.40;;;22.40;48.90;;;;;;5051694;28;20245;-68
2023/07/08 02:22:10;;;;;;;12.43;8.50;;;22.30;50.20;;;;;;5051477;28;20218;-68
2023/07/08 02:24:36;;;;;;;17.07;8.07;;;22.10;50.80;;;;;;5051547;28;20193;-69
2023/07/08 02:27:01;;;;;;;15.07;7.30;;;22.10;50.30;;;;;;5051418;28;20418;-68
2023/07/08 02:29:27;;;;;;;10.60;7.70;;;22.00;50.70;;;;;;5051424;28;20203;-69
2023/07/08 02:31:52;;;;;;;12.13;7.77;;;21.90;50.10;;;;;;5049794;28;20230;-69
2023/07/08 02:34:18;;;;;;;10.37;7.13;;;21.80;50.40;;;;;;5051160;28;20648;-69
2023/07/08 02:36:44;;;;;;;10.00;6.50;;;21.80;50.50;;;;;;5051188;28;20185;-68
2023/07/08 02:39:10;;;;;;;11.30;7.93;;;21.70;50.40;;;;;;5051118;28;20713;-68
2023/07/08 02:41:36;;;;;;;10.70;7.40;;;21.70;51.10;;;;;;5051044;28;20917;-68
2023/07/08 02:44:02;;;;;;;12.73;8.70;;;21.80;50.00;;;;;;5051020;28;20430;-68
2023/07/08 02:46:27;;;;;;;16.43;7.87;;;21.90;50.20;;;;;;5051032;28;20423;-68
2023/07/08 02:48:53;;;;;;;15.50;8.00;;;21.90;51.80;;;;;;5050866;28;20216;-68
2023/07/08 02:51:18;;;;;;;15.37;8.10;;;22.10;50.30;;;;;;5050851;28;20254;-68
2023/07/08 02:53:44;;;;;;;11.40;7.40;;;22.30;49.90;;;;;;5049428;28;20249;-68
2023/07/08 02:56:10;;;;;;;10.60;6.97;;;22.40;50.50;;;;;;5050839;28;20176;-68
2023/07/08 02:58:36;;;;;;;10.10;7.33;;;22.50;50.20;;;;;;5049232;28;20189;-69
2023/07/08 03:01:01;;;;;;;15.83;8.10;;;22.50;52.40;;;;;;5050712;28;20756;-68
2023/07/08 03:03:31;;;;;;;10.67;7.63;;;22.50;53.00;;;;;;5050547;28;20964;-69
2023/07/08 03:05:59;;;;;;;14.67;6.80;;;22.50;52.40;;;;;;5050359;28;20615;-69
2023/07/08 03:08:25;;;;;;;9.87;7.30;;;22.40;53.30;;;;;;5050385;28;20762;-68
2023/07/08 03:10:59;;;;;;;13.03;7.87;;;22.30;53.70;;;;;;5050251;28;21052;-69
2023/07/08 03:13:26;;;;;;;13.50;7.40;;;22.20;52.50;;;;;;5048914;28;20468;-69
2023/07/08 03:15:51;;;;;;;14.83;8.60;;;22.10;53.60;;;;;;5050210;28;20422;-69
2023/07/08 03:18:17;;;;;;;13.50;7.53;;;22.00;53.80;;;;;;5050210;28;20424;-68
2023/07/08 03:20:44;;;;;;;12.47;8.60;;;21.90;53.90;;;;;;5050079;28;20319;-69
2023/07/08 03:23:11;;;;;;;10.80;7.40;;;21.90;53.90;;;;;;5050166;28;20418;-69
2023/07/08 03:25:37;;;;;;;10.57;7.17;;;21.90;53.70;;;;;;5049672;28;20526;-67
2023/07/08 03:28:05;;;;;;;9.60;6.97;;;21.90;53.30;;;;;;5049701;28;20515;-68
2023/07/08 03:30:32;;;;;;;12.40;8.00;;;21.80;52.90;;;;;;5050012;28;20478;-69
2023/07/08 03:32:58;;;;;;;12.53;8.10;;;21.80;52.40;;;;;;5049872;28;20462;-68
2023/07/08 03:35:24;;;;;;;12.70;8.30;;;21.70;52.40;;;;;;5049954;28;20424;-68
2023/07/08 03:37:50;;;;;;;15.27;7.67;;;21.70;52.50;;;;;;5050235;28;20429;-69
2023/07/08 03:40:16;;;;;;;12.60;7.13;;;21.70;53.10;;;;;;5048192;28;20434;-68
2023/07/08 03:42:42;;;;;;;11.27;6.70;;;21.70;53.10;;;;;;5048410;28;20429;-68
2023/07/08 03:45:08;;;;;;;13.03;7.53;;;21.70;54.00;;;;;;5049939;28;20261;-68
2023/07/08 03:47:33;;;;;;;13.10;6.70;;;21.60;54.70;;;;;;5048180;28;20193;-68
2023/07/08 03:49:59;;;;;;;11.20;7.67;;;21.60;55.50;;;;;;5049637;28;20833;-68
2023/07/08 03:52:24;;;;;;;11.47;8.20;;;21.50;55.60;;;;;;5048276;28;20212;-68
2023/07/08 03:54:50;;;;;;;11.27;7.30;;;21.40;57.30;;;;;;5049595;28;20643;-68
2023/07/08 03:57:16;;;;;;;13.00;8.03;;;21.40;55.80;;;;;;5048019;28;20556;-68
2023/07/08 03:59:41;;;;;;;12.40;7.00;;;21.50;56.10;;;;;;5049477;28;20666;-68
2023/07/08 04:02:10;;;;;;;13.20;7.47;;;21.60;55.00;;;;;;5049520;28;20533;-68
2023/07/08 04:04:37;;;;;;;12.17;7.80;;;21.60;60.90;;;;;;5049321;28;20179;-68
2023/07/08 04:07:06;;;;;;;13.43;7.30;;;21.50;57.10;;;;;;5049399;28;20427;-68
2023/07/08 04:09:31;;;;;;;10.90;7.53;;;21.40;59.30;;;;;;5049219;28;20421;-69
2023/07/08 04:11:58;;;;;;;12.07;7.17;;;21.30;61.40;;;;;;5049194;28;20453;-68
2023/07/08 04:14:24;;;;;;;9.80;7.00;;;21.40;64.30;;;;;;5049151;28;20546;-68
2023/07/08 04:16:58;;;;;;;11.23;7.47;;;21.50;67.90;;;;;;5049179;28;20424;-69
2023/07/08 04:19:26;;;;;;;7.97;6.67;;;21.50;65.50;;;;;;5049176;28;20426;-69
2023/07/08 04:21:52;;;;;;;15.77;7.50;;;21.60;64.70;;;;;;5049212;28;20445;-69
2023/07/08 04:24:18;;;;;;;12.10;6.40;;;21.60;66.90;;;;;;5049264;28;20501;-69
2023/07/08 04:26:46;;;;;;;13.67;8.10;;;21.50;62.50;;;;;;5049124;28;20564;-69
2023/07/08 04:29:14;;;;;;;14.67;8.57;;;21.70;66.70;;;;;;5049099;28;20265;-70
2023/07/08 04:31:41;;;;;;;15.13;7.57;;;21.50;66.60;;;;;;5048996;28;21096;-68
2023/07/08 04:34:07;;;;;;;10.87;6.77;;;21.40;67.20;;;;;;5048887;28;20459;-68
2023/07/08 04:36:34;;;;;;;11.93;7.40;;;21.40;68.30;;;;;;5047146;28;20477;-69
2023/07/08 04:39:00;;;;;;;13.30;6.50;;;21.40;66.70;;;;;;5049083;28;20418;-70
2023/07/08 04:41:26;;;;;;;9.97;5.93;;;21.50;68.10;;;;;;5048844;28;20435;-68
2023/07/08 04:43:57;;;;;;;12.30;8.13;;;21.70;68.30;;;;;;5048828;28;21058;-70
2023/07/08 04:46:38;;;;;;;12.67;8.40;;;21.80;66.50;;;;;;5048713;28;20537;-69
2023/07/08 04:49:11;;;;;;;10.67;7.27;;;21.70;65.10;;;;;;5048720;28;20428;-70
2023/07/08 04:51:37;;;;;;;10.97;7.27;;;21.70;66.80;;;;;;5048442;28;21015;-69
2023/07/08 04:54:03;;;;;;;11.03;7.50;;;21.80;70.80;;;;;;5048669;28;20561;-70
2023/07/08 04:56:41;;;;;;;8.97;6.67;;;21.80;70.20;;;;;;5048632;28;20437;-69
2023/07/08 04:59:13;;;;;;;8.83;6.63;;;21.80;74.30;;;;;;5048789;28;20902;-70
2023/07/08 05:01:39;;;;;;;13.77;7.80;;;21.90;79.50;;;;;;5046984;28;20457;-69
2023/07/08 05:04:05;;;;;;;10.90;6.97;;;22.00;82.20;;;;;;5048701;28;20423;-71
2023/07/08 05:06:31;;;;;;;15.40;7.77;;;22.00;82.40;;;;;;5048610;28;20415;-70
2023/07/08 05:08:59;;;;;;;13.13;8.10;;;22.10;84.70;;;;;;5049000;28;20833;-68
2023/07/08 05:11:24;;;;;;;10.53;7.17;;;22.10;86.20;;;;;;5048637;28;20461;-70
2023/07/08 05:13:50;;;;;;;11.83;7.57;;;22.10;85.70;;;;;;5048737;28;20465;-69
2023/07/08 05:16:16;;;;;;;8.93;6.80;;;22.20;87.20;;;;;;5048795;28;20195;-71
2023/07/08 05:18:42;;;;;;;8.10;6.70;;;22.20;89.80;;;;;;5047554;28;20201;-71
2023/07/08 05:21:09;;;;;;;9.03;6.87;;;22.20;90.40;;;;;;5048870;28;20447;-71
2023/07/08 05:23:35;;;;;;;12.67;6.10;;;22.10;90.00;;;;;;5048902;28;20185;-71
2023/07/08 05:26:01;;;;;;;9.40;6.23;;;22.20;81.90;;;;;;5048679;28;20443;-70
2023/07/08 05:28:27;;;;;;;10.00;6.20;;;22.30;82.40;;;;;;5048846;28;20207;-68
2023/07/08 05:30:56;;;;;;;8.07;6.20;;;22.40;77.20;;;;;;5049005;28;20509;-70
2023/07/08 05:33:24;;;;;;;11.67;6.30;;;22.50;79.10;;;;;;5048905;28;20220;-69
2023/07/08 05:35:50;;;;;;;10.93;6.23;;;22.50;78.70;;;;;;5048972;28;20923;-69
2023/07/08 05:38:16;;;;;;;9.40;6.50;;;22.50;77.50;;;;;;5049181;28;20710;-70
2023/07/08 05:40:42;;;;;;;9.90;6.07;;;22.70;80.50;;;;;;5048816;28;20947;-69
2023/07/08 05:43:07;;;;;;;9.53;6.07;;;22.80;82.10;;;;;;5048794;28;20194;-70
2023/07/08 05:45:35;;;;;;;9.00;6.00;;;22.90;80.90;;;;;;5048553;28;20189;-70
2023/07/08 05:48:01;;;;;;;9.20;5.87;;;23.00;79.00;;;;;;5047008;28;20192;-70
2023/07/08 05:50:26;;;;;;;10.43;6.67;;;23.10;77.60;;;;;;5050657;28;20432;-70
2023/07/08 05:52:52;;;;;;;14.57;6.90;;;23.00;76.70;;;;;;5052108;28;20423;-68
2023/07/08 05:55:17;;;;;;;10.63;6.30;;;22.90;76.80;;;;;;5034144;28;20602;-68
2023/07/08 05:57:43;;;;;;;10.53;6.17;;;22.90;75.50;;;;;;5052042;28;20195;-70
2023/07/08 06:00:10;;;;;;;8.80;6.60;;;22.90;76.50;;;;;;5052036;28;20193;-70
2023/07/08 06:02:36;;;;;;;15.60;7.07;;;22.90;76.90;;;;;;5051891;28;20271;-69
2023/07/08 06:05:02;;;;;;;10.93;7.60;;;22.80;74.10;;;;;;5050532;28;20509;-70
2023/07/08 06:07:27;;;;;;;10.20;6.33;;;22.70;74.80;;;;;;5050484;28;20246;-71
2023/07/08 06:09:55;;;;;;;9.30;5.83;;;22.60;75.10;;;;;;5051726;28;20277;-71
2023/07/08 06:12:21;;;;;;;11.23;6.20;;;22.60;78.60;;;;;;5051663;28;20362;-69
2023/07/08 06:14:47;;;;;;;9.87;5.33;;;22.70;77.00;;;;;;5051596;28;20504;-70
2023/07/08 06:17:13;;;;;;;7.50;5.40;;;22.80;77.00;;;;;;5051729;28;20487;-69
2023/07/08 06:19:38;;;;;;;6.97;5.30;;;22.90;77.00;;;;;;5051671;28;20296;-69
2023/07/08 06:22:04;;;;;;;14.73;4.17;;;22.90;76.50;;;;;;5051805;28;20549;-68
2023/07/08 06:24:30;;;;;;;12.60;5.53;;;23.00;73.10;;;;;;5033604;28;20206;-70
2023/07/08 06:26:55;;;;;;;6.13;4.97;;;23.00;73.80;;;;;;5051451;28;20221;-71
2023/07/08 06:29:21;;;;;;;8.70;5.77;;;23.10;73.30;;;;;;5051944;28;20212;-70
2023/07/08 06:31:46;;;;;;;7.90;5.60;;;23.10;74.30;;;;;;5051387;28;20291;-70
2023/07/08 06:34:12;;;;;;;6.60;4.30;;;23.10;74.40;;;;;;5051598;28;20589;-71
2023/07/08 06:36:38;;;;;;;8.13;4.53;;;23.10;72.30;;;;;;5051348;28;20189;-70
2023/07/08 06:39:06;;;;;;;9.63;5.30;;;23.10;74.60;;;;;;5051357;28;20649;-70
2023/07/08 06:41:32;;;;;;;7.93;5.17;;;23.20;75.00;;;;;;5051397;28;20210;-68
2023/07/08 06:43:58;;;;;;;8.33;4.47;;;23.20;72.70;;;;;;5051865;28;20796;-70
2023/07/08 06:46:24;;;;;;;5.93;4.13;;;23.20;72.60;;;;;;5052301;28;20180;-70
2023/07/08 06:48:50;;;;;;;9.37;5.10;;;23.20;73.70;;;;;;5052528;28;20432;-69
2023/07/08 06:51:16;;;;;;;6.33;3.97;;;23.30;74.50;;;;;;5052003;28;20994;-71
2023/07/08 06:53:42;;;;;;;5.40;3.33;;;23.30;74.10;;;;;;5051761;28;20243;-70
2023/07/08 06:56:08;;;;;;;5.70;4.23;;;23.30;72.70;;;;;;5051572;28;20912;-69
2023/07/08 06:58:34;;;;;;;7.37;4.33;;;23.40;73.20;;;;;;5050569;28;20197;-70
2023/07/08 07:00:59;;;;;;;6.60;4.40;;;23.30;73.10;;;;;;5051587;28;20434;-69
2023/07/08 07:03:25;;;;;;;6.50;3.70;;;23.40;72.90;;;;;;5050595;28;20198;-69
2023/07/08 07:05:51;;;;;;;6.93;4.10;;;23.40;72.80;;;;;;5050031;28;20226;-70
2023/07/08 07:08:16;;;;;;;4.90;3.70;;;23.40;72.60;;;;;;5050093;28;20614;-69
2023/07/08 07:10:42;;;;;;;7.40;4.07;;;23.50;72.70;;;;;;5049826;28;20215;-68
2023/07/08 07:13:08;;;;;;;5.63;4.33;;;23.50;73.20;;;;;;5049252;28;20217;-69
2023/07/08 07:15:34;;;;;;;5.40;3.87;;;23.60;73.40;;;;;;5049721;28;20436;-69
2023/07/08 07:18:00;;;;;;;9.97;4.93;;;23.60;74.50;;;;;;5049316;28;20252;-70
2023/07/08 07:20:25;;;;;;;8.73;4.00;;;23.70;74.20;;;;;;5049504;28;20303;-70
2023/07/08 07:22:51;;;;;;;5.70;3.70;;;23.80;74.30;;;;;;5049295;28;20742;-70
2023/07/08 07:25:17;;;;;;;8.73;4.47;;;23.80;74.80;;;;;;5049389;28;20421;-68
2023/07/08 07:27:43;;;;;;;9.50;3.87;;;23.90;73.70;;;;;;5049195;28;20834;-69
2023/07/08 07:30:12;;;;;;;4.53;3.73;;;24.00;74.80;;;;;;5048849;28;20664;-69
2023/07/08 07:32:38;;;;;;;6.60;4.53;;;24.00;76.00;;;;;;5048727;28;20259;-68
2023/07/08 07:35:05;;;;;;;6.80;3.53;;;24.00;75.50;;;;;;5048887;28;20424;-69
2023/07/08 07:37:31;;;;;;;4.40;3.47;;;24.10;75.10;;;;;;5048640;28;20508;-69
2023/07/08 07:39:56;;;;;;;9.20;3.60;;;24.10;75.00;;;;;;5048690;28;20526;-68
2023/07/08 07:42:22;;;;;;;7.60;3.63;;;24.30;77.40;;;;;;5048726;28;20209;-70
2023/07/08 07:44:47;;;;;;;6.00;3.50;;;24.10;75.90;;;;;;5048534;28;20271;-70
2023/07/08 07:47:14;;;;;;;5.47;3.33;;;24.20;75.70;;;;;;5048504;28;20686;-69
2023/07/08 07:49:40;;;;;;;6.83;3.80;;;24.20;77.60;;;;;;5046990;28;20182;-71
2023/07/08 07:52:06;;;;;;;5.23;3.73;;;24.30;79.10;;;;;;5048277;28;20902;-69
2023/07/08 07:54:32;;;;;;;6.47;3.30;;;24.30;78.10;;;;;;5048224;28;20477;-69
2023/07/08 07:56:57;;;;;;;4.17;3.30;;;24.30;80.80;;;;;;5048283;28;20839;-69
2023/07/08 07:59:23;;;;;;;5.90;3.17;;;24.30;78.60;;;;;;5048178;28;20236;-70
2023/07/08 08:01:49;;;;;;;9.83;3.20;;;24.20;81.60;;;;;;5048102;28;20896;-69
2023/07/08 08:04:14;;;;;;;5.70;3.60;;;24.20;83.60;;;;;;5048078;28;20599;-69
2023/07/08 08:06:40;;;;;;;4.87;3.50;;;24.20;79.20;;;;;;5048201;28;21004;-69
2023/07/08 08:09:06;;;;;;;6.40;3.70;;;24.20;85.10;;;;;;5046810;28;20517;-68
2023/07/08 08:11:33;;;;;;;5.80;3.17;;;24.10;78.20;;;;;;5047728;28;20284;-69
2023/07/08 08:14:00;;;;;;;6.63;3.30;;;24.20;81.40;;;;;;5047909;28;20505;-70
2023/07/08 08:16:26;;;;;;;7.73;4.00;;;24.30;82.20;;;;;;5048013;28;20937;-69
2023/07/08 08:18:51;;;;;;;6.40;4.47;;;24.30;78.60;;;;;;5048081;28;20425;-68
2023/07/08 08:21:17;;;;;;;5.57;4.80;;;24.30;76.20;;;;;;5048091;28;20228;-70
2023/07/08 08:23:42;;;;;;;9.20;4.87;;;24.30;85.30;;;;;;5047930;28;20872;-69
2023/07/08 08:26:08;;;;;;;7.53;5.47;;;24.40;87.50;;;;;;5047936;28;20191;-70
2023/07/08 08:28:34;;;;;;;4.70;3.87;;;24.40;82.20;;;;;;5047870;28;20688;-69
2023/07/08 08:31:00;;;;;;;6.17;4.73;;;24.50;81.60;;;;;;5047649;28;20217;-68
2023/07/08 08:33:25;;;;;;;7.07;4.73;;;24.50;85.70;;;;;;5047704;28;20232;-69
2023/07/08 08:35:51;;;;;;;8.80;4.40;;;24.50;84.40;;;;;;5047792;28;20325;-69
2023/07/08 08:38:17;;;;;;;6.57;3.97;;;24.50;87.80;;;;;;5046242;28;20184;-70
2023/07/08 08:40:43;;;;;;;6.47;4.60;;;24.50;86.70;;;;;;5047901;28;20197;-71
2023/07/08 08:43:19;;;;;;;9.50;4.63;;;24.50;91.10;;;;;;5048202;28;20428;-69
2023/07/08 08:46:26;;;;;;;7.27;4.23;;;24.60;90.10;;;;;;5048210;28;20429;-71
2023/07/08 08:49:07;;;;;;;7.27;4.70;;;24.60;87.00;;;;;;5045574;28;21207;-69
2023/07/08 08:51:33;;;;;;;7.83;4.63;;;24.70;91.20;;;;;;5048064;28;20993;-69
2023/07/08 08:54:00;;;;;;;17.33;5.03;;;24.70;97.20;;;;;;5048306;28;20473;-69
2023/07/08 08:56:38;;;;;;;8.20;4.53;;;24.70;94.00;;;;;;5048409;28;20425;-70
2023/07/08 08:59:22;;;;;;;8.13;4.60;;;24.70;87.10;;;;;;5047981;28;20418;-70
2023/07/08 09:01:49;;;;;;;11.90;5.03;;;24.60;90.80;;;;;;5048269;28;20956;-70
2023/07/08 09:04:36;;;;;;;14.07;4.70;;;24.60;92.50;;;;;;5048178;28;20508;-70
2023/07/08 09:07:07;;;;;;;8.17;5.00;;;24.60;93.30;;;;;;5048039;28;20501;-70
2023/07/08 09:09:40;;;;;;;13.37;5.77;;;24.60;88.10;;;;;;5048089;28;20425;-70
2023/07/08 09:12:13;;;;;;;15.13;5.83;;;24.50;88.70;;;;;;5047915;28;20453;-70
2023/07/08 09:14:39;;;;;;;8.53;5.03;;;24.50;89.40;;;;;;5047987;28;20558;-69
2023/07/08 09:17:14;;;;;;;9.90;5.53;;;24.40;92.40;;;;;;5047930;28;20414;-69
2023/07/08 09:19:44;;;;;;;10.23;4.30;;;24.30;95.20;;;;;;5047816;28;21323;-70
2023/07/08 09:22:27;;;;;;;11.73;4.90;;;24.30;95.40;;;;;;5047913;28;21131;-70
2023/07/08 09:25:10;;;;;;;5.60;4.07;;;24.20;94.10;;;;;;5049479;28;20413;-70
2023/07/08 09:27:36;;;;;;;7.27;4.10;;;24.20;93.60;;;;;;5051713;28;20413;-70
2023/07/08 09:30:01;;;;;;;4.50;3.70;;;24.20;91.90;;;;;;5051618;28;21042;-68
2023/07/08 09:32:28;;;;;;;10.20;3.80;;;24.20;94.80;;;;;;5051868;28;20633;-69
2023/07/08 09:35:06;;;;;;;8.53;3.90;;;24.10;92.60;;;;;;5051433;28;20705;-72
2023/07/08 09:37:34;;;;;;;17.20;5.77;;;24.10;93.70;;;;;;5051648;28;20428;-70
2023/07/08 09:40:11;;;;;;;6.33;4.07;;;24.00;99.10;;;;;;5051799;28;20442;-70
2023/07/08 09:42:37;;;;;;;6.33;3.70;;;24.10;93.90;;;;;;5051871;28;20440;-71
2023/07/08 09:45:12;;;;;;;5.23;3.80;;;24.10;97.70;;;;;;5050510;28;20429;-70
2023/07/08 09:47:40;;;;;;;9.43;3.87;;;24.10;96.10;;;;;;5052058;28;20182;-70
2023/07/08 09:50:19;;;;;;;10.27;3.47;;;24.10;97.50;;;;;;5051647;28;20934;-70
2023/07/08 09:52:50;;;;;;;6.40;3.67;;;24.30;97.20;;;;;;5051396;28;20429;-69
2023/07/08 09:55:16;;;;;;;9.40;3.73;;;24.30;97.40;;;;;;5051563;28;20513;-69
2023/07/08 09:57:44;;;;;;;8.63;4.20;;;24.30;97.80;;;;;;5051319;28;21276;-69
2023/07/08 10:00:19;;;;;;;14.43;4.63;;;24.40;97.70;;;;;;5050886;28;20427;-69
2023/07/08 10:03:00;;;;;;;7.33;4.10;;;24.40;92.80;;;;;;5049838;28;20518;-70
2023/07/08 10:05:32;;;;;;;3.87;3.50;;;24.50;95.40;;;;;;5050970;28;20412;-69
2023/07/08 10:07:58;;;;;;;11.70;4.87;;;24.60;99.90;;;;;;5050813;28;20779;-68
2023/07/08 10:10:46;;;;;;;8.77;4.53;;;24.90;99.90;;;;;;5050860;28;20436;-69
2023/07/08 10:13:17;;;;;;;7.30;3.37;;;25.30;99.90;;;;;;5050551;28;20460;-70
2023/07/08 10:15:52;;;;;;;12.60;4.47;;;25.80;99.90;;;;;;5050747;28;20487;-69
2023/07/08 10:18:27;;;;;;;10.03;4.20;;;26.50;99.90;;;;;;5050242;28;20421;-69
2023/07/08 10:20:52;;;;;;;5.90;3.43;;;27.30;99.90;;;;;;5050249;28;20876;-68
2023/07/08 10:23:23;;;;;;;15.50;5.00;;;28.00;97.70;;;;;;5050433;28;20442;-68
2023/07/08 10:26:03;;;;;;;11.93;3.57;;;28.50;96.00;;;;;;5050092;28;20252;-69
2023/07/08 10:28:48;;;;;;;6.70;3.33;;;28.80;94.70;;;;;;5050028;28;20434;-71
2023/07/08 10:31:49;;;;;;;10.03;3.10;;;28.70;95.10;;;;;;5050122;28;20853;-69
2023/07/08 10:34:39;;;;;;;5.07;2.80;;;28.70;96.70;;;;;;5050065;28;20465;-71
2023/07/08 10:37:15;;;;;;;4.60;3.00;;;29.30;94.30;;;;;;5049671;28;20414;-69
2023/07/08 10:40:02;;;;;;;6.40;2.90;;;29.40;94.30;;;;;;5050319;28;20417;-72
2023/07/08 10:43:05;;;;;;;9.10;3.70;;;29.30;94.30;;;;;;5050296;28;20426;-70
2023/07/08 10:45:44;;;;;;;4.70;3.20;;;29.00;94.70;;;;;;5050216;28;20450;-68
2023/07/08 10:48:28;;;;;;;4.70;3.33;;;28.50;94.80;;;;;;5050525;28;20410;-70
2023/07/08 10:51:23;;;;;;;4.77;3.17;;;28.50;96.20;;;;;;5050193;28;20434;-69
2023/07/08 10:53:48;;;;;;;5.00;3.20;;;28.80;95.30;;;;;;5049726;28;20462;-70
2023/07/08 10:56:22;;;;;;;3.90;2.93;;;28.90;95.20;;;;;;5050048;28;20445;-68
2023/07/08 10:59:31;;;;;;;7.30;3.30;;;29.00;94.20;;;;;;5049616;28;20555;-67
2023/07/08 11:02:18;;;;;;;5.63;2.43;;;29.20;93.50;;;;;;5048746;28;21020;-66
2023/07/08 11:04:49;;;;;;;7.67;2.80;;;29.10;91.90;;;;;;5049305;28;20912;-68
2023/07/08 11:07:27;;;;;;;8.03;3.40;;;29.20;92.00;;;;;;5049175;28;20421;-69
2023/07/08 11:09:57;;;;;;;4.10;3.37;;;29.40;92.80;;;;;;5049262;28;20422;-68
2023/07/08 11:12:46;;;;;;;8.13;3.43;;;29.40;91.60;;;;;;5049089;28;20782;-71
2023/07/08 11:15:12;;;;;;;7.33;3.00;;;29.20;92.20;;;;;;5048854;28;20511;-69
2023/07/08 11:17:49;;;;;;;6.00;3.10;;;29.40;92.20;;;;;;5049061;28;20475;-69
2023/07/08 11:20:25;;;;;;;3.93;3.00;;;29.50;91.80;;;;;;5049063;28;20186;-70
2023/07/08 11:23:21;;;;;;;6.43;3.47;;;29.60;92.00;;;;;;5049076;28;20414;-68
2023/07/08 11:25:50;;;;;;;5.40;2.70;;;29.80;91.80;;;;;;5048983;28;20449;-67
2023/07/08 11:28:21;;;;;;;3.10;2.90;;;29.80;91.60;;;;;;5048647;28;20422;-69
2023/07/08 11:30:49;;;;;;;4.57;2.97;;;30.00;91.70;;;;;;5048729;28;20813;-68
2023/07/08 11:33:19;;;;;;;5.83;3.63;;;30.10;91.80;;;;;;5048524;28;20461;-68
2023/07/08 11:35:49;;;;;;;4.67;2.97;;;30.20;91.20;;;;;;5048652;28;20452;-69
2023/07/08 11:38:20;;;;;;;5.23;2.67;;;30.40;91.40;;;;;;5048452;28;20426;-72
2023/07/08 11:40:51;;;;;;;5.80;3.00;;;30.50;92.60;;;;;;5048589;28;20461;-68
2023/07/08 11:43:18;;;;;;;4.87;3.00;;;30.70;91.20;;;;;;5048641;28;20981;-70
2023/07/08 11:45:44;;;;;;;3.10;2.57;;;30.70;90.40;;;;;;5048460;28;20454;-69
2023/07/08 11:48:30;;;;;;;6.10;2.97;;;30.80;90.90;;;;;;5047659;28;20449;-69
2023/07/08 11:50:57;;;;;;;3.53;2.77;;;31.00;91.00;;;;;;5048319;28;20231;-68
2023/07/08 11:53:29;;;;;;;4.20;3.10;;;31.00;90.20;;;;;;5048490;28;20461;-70
2023/07/08 11:56:16;;;;;;;3.73;3.33;;;31.00;88.80;;;;;;5048247;28;20900;-69
2023/07/08 11:58:57;;;;;;;4.10;2.83;;;31.00;89.40;;;;;;5048201;28;20410;-69
2023/07/08 12:01:28;;;;;;;3.50;2.67;;;31.00;90.80;;;;;;5048178;28;20839;-70
2023/07/08 12:04:24;;;;;;;2.90;2.63;;;31.10;91.10;;;;;;5048346;28;20418;-69
2023/07/08 12:07:05;;;;;;;5.67;3.10;;;31.30;88.70;;;;;;5048052;28;20914;-69
2023/07/08 12:09:49;;;;;;;5.53;3.10;;;31.30;89.80;;;;;;5047977;28;20410;-69
2023/07/08 12:12:27;;;;;;;6.53;3.00;;;31.30;88.60;;;;;;5047761;28;20425;-69
2023/07/08 12:15:01;;;;;;;3.47;2.53;;;31.30;88.80;;;;;;5048034;28;20468;-70
2023/07/08 12:17:27;;;;;;;3.57;2.80;;;31.30;88.00;;;;;;5047838;28;20831;-68
2023/07/08 12:19:57;;;;;;;4.00;2.57;;;31.10;87.60;;;;;;5047806;28;20488;-68
2023/07/08 12:22:23;;;;;;;2.50;2.20;;;31.30;87.70;;;;;;5048031;28;20204;-68
2023/07/08 12:24:48;;;;;;;3.50;3.20;;;31.30;87.40;;;;;;5047794;28;20441;-68
2023/07/08 12:27:14;;;;;;;3.90;3.60;;;31.50;87.00;;;;;;5047996;28;20184;-69
2023/07/08 12:29:40;;;;;;;5.90;3.00;;;31.60;86.20;;;;;;5047765;28;20214;-69
2023/07/08 12:32:12;;;;;;;4.70;2.70;;;31.60;86.50;;;;;;5048089;28;20310;-69
2023/07/08 12:34:38;;;;;;;4.10;2.70;;;31.60;87.10;;;;;;5048872;28;20812;-68
2023/07/08 12:37:04;;;;;;;3.00;2.20;;;31.70;86.80;;;;;;5048174;28;20410;-70
2023/07/08 12:39:34;;;;;;;4.30;3.17;;;31.70;87.50;;;;;;5048197;28;20538;-68
2023/07/08 12:41:59;;;;;;;4.37;2.80;;;31.70;87.00;;;;;;5048385;28;20868;-68
2023/07/08 12:44:26;;;;;;;3.90;2.43;;;31.90;87.80;;;;;;5048298;28;20987;-69
2023/07/08 12:46:54;;;;;;;3.10;2.50;;;31.90;87.20;;;;;;5048351;28;20253;-70
2023/07/08 12:49:20;;;;;;;3.43;2.53;;;31.90;86.80;;;;;;5047866;28;20521;-69
2023/07/08 12:51:46;;;;;;;2.93;2.63;;;31.70;84.70;;;;;;5047954;28;20442;-69
2023/07/08 12:54:13;;;;;;;4.27;2.63;;;31.40;84.00;;;;;;5048096;28;20470;-68